N409TP KGRB-KSUE
Flight info
| Callsign | N409TP |
|---|---|
| Flight time | 0h 21m |
| Altitude | 2500 |
| Route | DIRECT |
| Aircraft | C172/L-V/N |
Departure
| Time | 2026-04-20 18:45 |
|---|---|
| Airport | Austin Straubel International Airport (KGRB) |
Arrival
| Time | 2026-04-20 19:06 |
|---|---|
| Airport | Door County Cherryland Airport (KSUE) |
| Time | Latitude | Longitude | Altitude | Speed | Heading |
|---|---|---|---|---|---|
| 2026-04-20 18:34 | 44.49119 | -88.12857 | 694 ft | 0 kts | 360° |
| 2026-04-20 18:40 | 44.49132 | -88.12842 | 691 ft | 11 kts | 77° |
| 2026-04-20 18:40 | 44.49055 | -88.12841 | 693 ft | 23 kts | 157° |
| 2026-04-20 18:40 | 44.48919 | -88.12693 | 688 ft | 23 kts | 123° |
| 2026-04-20 18:40 | 44.48909 | -88.12520 | 686 ft | 16 kts | 64° |
| 2026-04-20 18:41 | 44.48978 | -88.12350 | 686 ft | 22 kts | 59° |
| 2026-04-20 18:41 | 44.49050 | -88.12170 | 689 ft | 22 kts | 58° |
| 2026-04-20 18:41 | 44.49158 | -88.11912 | 690 ft | 35 kts | 58° |
| 2026-04-20 18:41 | 44.49292 | -88.11593 | 684 ft | 33 kts | 62° |
| 2026-04-20 18:42 | 44.49374 | -88.11391 | 680 ft | 11 kts | 62° |
| 2026-04-20 18:42 | 44.49379 | -88.11368 | 681 ft | 0 kts | 81° |
| 2026-04-20 18:42 | 44.49378 | -88.11343 | 681 ft | 6 kts | 110° |
| 2026-04-20 18:43 | 44.49376 | -88.11338 | 681 ft | 0 kts | 119° |
| 2026-04-20 18:43 | 44.49376 | -88.11337 | 681 ft | 1 kts | 125° |
| 2026-04-20 18:43 | 44.49369 | -88.11325 | 681 ft | 0 kts | 134° |
| 2026-04-20 18:44 | 44.49311 | -88.11285 | 682 ft | 18 kts | 172° |
| 2026-04-20 18:44 | 44.49189 | -88.11513 | 685 ft | 51 kts | 237° |
| 2026-04-20 18:45 | 44.48962 | -88.12018 | 825 ft | 68 kts | 232° |
| 2026-04-20 18:45 | 44.48600 | -88.12559 | 1023 ft | 75 kts | 204° |
| 2026-04-20 18:45 | 44.48158 | -88.12170 | 1226 ft | 96 kts | 113° |
| 2026-04-20 18:45 | 44.48389 | -88.11232 | 1319 ft | 123 kts | 38° |
| 2026-04-20 18:46 | 44.48984 | -88.10559 | 1852 ft | 103 kts | 42° |
| 2026-04-20 18:46 | 44.49577 | -88.09967 | 2169 ft | 106 kts | 33° |
| 2026-04-20 18:46 | 44.50239 | -88.09420 | 2335 ft | 113 kts | 48° |
| 2026-04-20 18:46 | 44.50665 | -88.08501 | 2571 ft | 114 kts | 66° |
| 2026-04-20 18:47 | 44.50976 | -88.07501 | 2901 ft | 109 kts | 70° |
| 2026-04-20 18:47 | 44.51396 | -88.06562 | 3072 ft | 123 kts | 59° |
| 2026-04-20 18:47 | 44.51892 | -88.05528 | 3109 ft | 131 kts | 60° |
| 2026-04-20 18:47 | 44.52429 | -88.04546 | 3399 ft | 122 kts | 50° |
| 2026-04-20 18:48 | 44.52991 | -88.03537 | 3325 ft | 139 kts | 59° |
| 2026-04-20 18:48 | 44.53494 | -88.02404 | 3053 ft | 137 kts | 65° |
| 2026-04-20 18:48 | 44.53940 | -88.01205 | 2622 ft | 132 kts | 69° |
| 2026-04-20 18:48 | 44.54382 | -88.00034 | 2483 ft | 139 kts | 65° |
| 2026-04-20 18:49 | 44.54903 | -87.98914 | 2429 ft | 137 kts | 56° |
| 2026-04-20 18:49 | 44.55550 | -87.97922 | 2348 ft | 138 kts | 44° |
| 2026-04-20 18:49 | 44.56266 | -87.97019 | 2217 ft | 140 kts | 45° |
| 2026-04-20 18:49 | 44.56928 | -87.96059 | 2269 ft | 131 kts | 51° |
| 2026-04-20 18:50 | 44.57489 | -87.95068 | 2426 ft | 124 kts | 58° |
| 2026-04-20 18:50 | 44.57971 | -87.94113 | 2443 ft | 124 kts | 58° |
| 2026-04-20 18:50 | 44.58487 | -87.93199 | 2645 ft | 104 kts | 54° |
| 2026-04-20 18:50 | 44.59015 | -87.92379 | 2693 ft | 111 kts | 39° |
| 2026-04-20 18:51 | 44.59554 | -87.91653 | 2696 ft | 129 kts | 64° |
| 2026-04-20 18:51 | 44.60013 | -87.90505 | 2543 ft | 126 kts | 67° |
| 2026-04-20 18:51 | 44.60397 | -87.89411 | 2436 ft | 129 kts | 69° |
| 2026-04-20 18:51 | 44.60806 | -87.88299 | 2432 ft | 127 kts | 63° |
| 2026-04-20 18:52 | 44.61289 | -87.87227 | 2392 ft | 134 kts | 60° |
| 2026-04-20 18:52 | 44.61797 | -87.86220 | 2559 ft | 120 kts | 55° |
| 2026-04-20 18:52 | 44.62349 | -87.85232 | 2571 ft | 131 kts | 55° |
| 2026-04-20 18:52 | 44.62930 | -87.84266 | 2687 ft | 128 kts | 55° |
| 2026-04-20 18:53 | 44.63516 | -87.83273 | 2672 ft | 138 kts | 53° |
| 2026-04-20 18:53 | 44.64152 | -87.82179 | 2555 ft | 144 kts | 53° |
| 2026-04-20 18:53 | 44.64797 | -87.81119 | 2547 ft | 144 kts | 52° |
| 2026-04-20 18:53 | 44.65420 | -87.80051 | 2637 ft | 136 kts | 56° |
| 2026-04-20 18:54 | 44.66016 | -87.78989 | 2669 ft | 139 kts | 53° |
| 2026-04-20 18:54 | 44.66635 | -87.77972 | 2732 ft | 140 kts | 52° |
| 2026-04-20 18:54 | 44.67271 | -87.76872 | 2613 ft | 146 kts | 53° |
| 2026-04-20 18:54 | 44.67929 | -87.75757 | 2510 ft | 148 kts | 53° |
| 2026-04-20 18:55 | 44.68538 | -87.74613 | 2510 ft | 143 kts | 58° |
| 2026-04-20 18:55 | 44.69131 | -87.73519 | 2485 ft | 143 kts | 56° |
| 2026-04-20 18:55 | 44.69732 | -87.72407 | 2484 ft | 139 kts | 57° |
| 2026-04-20 18:55 | 44.70299 | -87.71332 | 2546 ft | 134 kts | 61° |
| 2026-04-20 18:56 | 44.70829 | -87.70209 | 2651 ft | 142 kts | 54° |
| 2026-04-20 18:56 | 44.71371 | -87.69067 | 2681 ft | 142 kts | 60° |
| 2026-04-20 18:56 | 44.71890 | -87.67877 | 2696 ft | 142 kts | 66° |
| 2026-04-20 18:56 | 44.72348 | -87.66687 | 2612 ft | 143 kts | 71° |
| 2026-04-20 18:57 | 44.72753 | -87.65460 | 2783 ft | 135 kts | 69° |
| 2026-04-20 18:57 | 44.73164 | -87.64240 | 2670 ft | 146 kts | 70° |
| 2026-04-20 18:57 | 44.73473 | -87.63420 | 2820 ft | 138 kts | 64° |
| 2026-04-20 18:57 | 44.74000 | -87.62337 | 2913 ft | 125 kts | 62° |
| 2026-04-20 18:58 | 44.74509 | -87.61211 | 2581 ft | 144 kts | 64° |
| 2026-04-20 18:58 | 44.74996 | -87.60074 | 2530 ft | 131 kts | 66° |
| 2026-04-20 18:58 | 44.75478 | -87.58954 | 2492 ft | 139 kts | 64° |
| 2026-04-20 18:58 | 44.75957 | -87.57772 | 2462 ft | 141 kts | 68° |
| 2026-04-20 18:59 | 44.76413 | -87.56581 | 2512 ft | 134 kts | 66° |
| 2026-04-20 18:59 | 44.76687 | -87.55333 | 2514 ft | 136 kts | 88° |
| 2026-04-20 18:59 | 44.76863 | -87.54057 | 2677 ft | 131 kts | 84° |
| 2026-04-20 18:59 | 44.77103 | -87.52793 | 2667 ft | 139 kts | 75° |
| 2026-04-20 19:00 | 44.77465 | -87.51543 | 2751 ft | 136 kts | 77° |
| 2026-04-20 19:00 | 44.77745 | -87.50237 | 2727 ft | 139 kts | 85° |
| 2026-04-20 19:00 | 44.77951 | -87.48929 | 2724 ft | 142 kts | 82° |
| 2026-04-20 19:00 | 44.78209 | -87.47666 | 2738 ft | 125 kts | 86° |
| 2026-04-20 19:01 | 44.78387 | -87.46389 | 2642 ft | 136 kts | 89° |
| 2026-04-20 19:01 | 44.78587 | -87.45071 | 2667 ft | 138 kts | 84° |
| 2026-04-20 19:01 | 44.78801 | -87.43794 | 2796 ft | 131 kts | 85° |
| 2026-04-20 19:01 | 44.79084 | -87.42575 | 2545 ft | 140 kts | 65° |
| 2026-04-20 19:02 | 44.79620 | -87.41413 | 2489 ft | 134 kts | 63° |
| 2026-04-20 19:02 | 44.80142 | -87.40329 | 2474 ft | 134 kts | 63° |
| 2026-04-20 19:02 | 44.80687 | -87.39259 | 2388 ft | 133 kts | 60° |
| 2026-04-20 19:02 | 44.81223 | -87.38187 | 2216 ft | 136 kts | 62° |
| 2026-04-20 19:03 | 44.81831 | -87.37169 | 2125 ft | 143 kts | 40° |
| 2026-04-20 19:03 | 44.82745 | -87.36675 | 2104 ft | 139 kts | 9° |
| 2026-04-20 19:03 | 44.83714 | -87.36706 | 2101 ft | 137 kts | 354° |
| 2026-04-20 19:03 | 44.84661 | -87.36831 | 1975 ft | 140 kts | 353° |
| 2026-04-20 19:04 | 44.85628 | -87.37023 | 1937 ft | 138 kts | 349° |
| 2026-04-20 19:04 | 44.86575 | -87.37249 | 2131 ft | 134 kts | 344° |
| 2026-04-20 19:04 | 44.87302 | -87.38069 | 2070 ft | 136 kts | 293° |
| 2026-04-20 19:04 | 44.87680 | -87.39245 | 2123 ft | 131 kts | 284° |
| 2026-04-20 19:05 | 44.87866 | -87.40478 | 1971 ft | 125 kts | 257° |
| 2026-04-20 19:05 | 44.87405 | -87.41380 | 1622 ft | 119 kts | 198° |
| 2026-04-20 19:05 | 44.86720 | -87.41520 | 1428 ft | 77 kts | 188° |
| 2026-04-20 19:05 | 44.86141 | -87.41705 | 1167 ft | 90 kts | 191° |
| 2026-04-20 19:06 | 44.85618 | -87.41883 | 1009 ft | 64 kts | 188° |
| 2026-04-20 19:06 | 44.85219 | -87.41994 | 817 ft | 51 kts | 193° |
| 2026-04-20 19:06 | 44.84866 | -87.42107 | 723 ft | 54 kts | 189° |
| 2026-04-20 19:06 | 44.84563 | -87.42196 | 718 ft | 24 kts | 195° |
| 2026-04-20 19:07 | 44.84465 | -87.42262 | 718 ft | 11 kts | 248° |
| 2026-04-20 19:07 | 44.84440 | -87.42343 | 721 ft | 9 kts | 200° |
| 2026-04-20 19:07 | 44.84380 | -87.42363 | 720 ft | 10 kts | 193° |
| 2026-04-20 19:07 | 44.84308 | -87.42385 | 720 ft | 11 kts | 196° |